Terminal Aerodrome Forecast
Issued by NWS

Home | Current Version | Previous Version | Text Only | Print | Product List | Glossary On
Versions: 1 2 3 4 5 6 7 8 9 10 11 12 13 14 15 16 17 18 19 20 21 22 23 24 25 26 27 28 29 30 31 32 33 34 35 36 37 38 39 40 41 42 43 44 45 46 47 48 49 50
622
FTUS45 KVEF 230520
TAFHND
TAF
KHND 230520Z 2306/2406 21009KT P6SM VCSH FEW100 BKN150 BKN250
     FM231100 17010KT P6SM VCSH SCT100 BKN150 OVC250
     FM231600 20010KT P6SM SCT100 BKN150 OVC200
     FM232000 21011KT P6SM VCTS SCT100CB OVC150
     FM240400 19010KT P6SM BKN120 BKN150=

USA.gov is the U.S. government's official web portal to all federal, state and local government web resources and services.